createdAt,value
2023-03-16T00:00:51.341Z,98535.81
2023-03-16T00:03:20.998Z,98535.44
2023-03-16T00:05:53.105Z,98528.56
2023-03-16T00:08:20.487Z,98537.97
2023-03-16T00:10:48.025Z,98531.13
2023-03-16T00:13:19.235Z,98539.59
2023-03-16T00:16:04.505Z,98543.28
2023-03-16T00:18:38.646Z,98543.63
2023-03-16T00:21:06.384Z,98546.34
2023-03-16T00:23:35.733Z,98549.81
2023-03-16T00:26:05.961Z,98547.34
2023-03-16T00:28:37.240Z,98555.97
2023-03-16T00:31:06.993Z,98562.88
2023-03-16T00:33:34.849Z,98564.31
2023-03-16T00:36:03.937Z,98572.28
2023-03-16T00:38:36.523Z,98564.63
2023-03-16T00:41:05.832Z,98574.91
2023-03-16T00:43:40.884Z,98568.03
2023-03-16T00:46:10.316Z,98566.31
2023-03-16T00:48:42.672Z,98565.44
2023-03-16T00:51:15.344Z,98562.16
2023-03-16T00:53:43.892Z,98551.25
2023-03-16T00:56:11.681Z,98561.28
2023-03-16T00:58:40.262Z,98564.63
2023-03-16T01:01:10.036Z,98557.97
2023-03-16T01:03:37.429Z,98552.97
2023-03-16T01:06:10.347Z,98551.44
2023-03-16T01:08:38.412Z,98547.97
2023-03-16T01:11:11.020Z,98559.13
2023-03-16T01:13:39.616Z,98553.31
2023-03-16T01:16:07.071Z,98550.44
2023-03-16T01:18:34.289Z,98554.59
2023-03-16T01:21:01.903Z,98545.94
2023-03-16T01:23:31.554Z,98554.41
2023-03-16T01:25:59.531Z,98553.09
2023-03-16T01:28:30.292Z,98543.91
2023-03-16T01:31:04.737Z,98543.16
2023-03-16T01:33:33.717Z,98542.44
2023-03-16T01:36:04.428Z,98540.78
2023-03-16T01:38:40.147Z,98535.00
2023-03-16T01:41:07.602Z,98540.16
2023-03-16T01:43:37.414Z,98538.53
2023-03-16T01:46:07.247Z,98538.47
2023-03-16T01:48:55.354Z,98541.94
2023-03-16T01:51:47.809Z,98518.44
2023-03-16T01:54:21.793Z,98536.00
2023-03-16T01:56:56.714Z,98530.91
2023-03-16T01:59:30.549Z,98534.34
2023-03-16T02:01:59.128Z,98527.66
2023-03-16T02:04:50.736Z,98526.81
2023-03-16T02:07:24.704Z,98526.03
2023-03-16T02:09:56.231Z,98529.44
2023-03-16T02:12:24.349Z,98527.13
2023-03-16T02:14:54.216Z,98524.13
2023-03-16T02:17:25.069Z,98529.06
2023-03-16T02:20:42.597Z,98530.56
2023-03-16T02:23:18.529Z,98525.34
2023-03-16T02:25:51.675Z,98523.09
2023-03-16T02:28:52.316Z,98520.66
2023-03-16T02:31:19.575Z,98523.44
2023-03-16T02:33:47.760Z,98520.84
2023-03-16T02:36:15.422Z,98516.72
2023-03-16T02:38:42.657Z,98508.44
2023-03-16T02:41:13.770Z,98524.34
2023-03-16T02:43:55.595Z,98515.19
2023-03-16T02:46:29.300Z,98518.69
2023-03-16T02:49:12.548Z,98525.34
2023-03-16T02:51:39.238Z,98534.00
2023-03-16T02:54:07.530Z,98531.81
2023-03-16T02:56:35.170Z,98531.81
2023-03-16T02:59:01.833Z,98535.09
2023-03-16T03:01:29.474Z,98530.72
2023-03-16T03:03:56.123Z,98528.75
2023-03-16T03:06:24.719Z,98525.47
2023-03-16T03:08:51.453Z,98527.41
2023-03-16T03:11:19.658Z,98519.13
2023-03-16T03:13:47.089Z,98529.38
2023-03-16T03:16:18.493Z,98527.66
2023-03-16T03:18:45.244Z,98536.91
2023-03-16T03:21:12.101Z,98535.16
2023-03-16T03:23:40.448Z,98536.09
2023-03-16T03:26:07.994Z,98541.19
2023-03-16T03:28:34.725Z,98544.66
2023-03-16T03:31:01.821Z,98551.59
2023-03-16T03:33:29.678Z,98536.63
2023-03-16T03:35:58.555Z,98536.63
2023-03-16T03:38:29.161Z,98540.81
2023-03-16T03:41:01.882Z,98541.72
2023-03-16T03:43:32.443Z,98543.41
2023-03-16T03:46:01.070Z,98555.22
2023-03-16T03:48:28.733Z,98558.03
2023-03-16T03:50:57.140Z,98553.22
2023-03-16T03:53:42.062Z,98560.03
2023-03-16T03:56:38.222Z,98556.06
2023-03-16T03:59:09.440Z,98557.72
2023-03-16T04:01:59.014Z,98562.03
2023-03-16T04:04:35.093Z,98573.13
2023-03-16T04:07:02.270Z,98568.41
2023-03-16T04:09:28.988Z,98577.81
2023-03-16T04:11:57.601Z,98589.50
2023-03-16T04:14:25.816Z,98594.69
2023-03-16T04:16:54.689Z,98588.63
2023-03-16T04:19:22.787Z,98596.16
2023-03-16T04:21:51.698Z,98588.50
2023-03-16T04:24:19.646Z,98590.16
2023-03-16T04:26:46.629Z,98590.16
2023-03-16T04:29:18.039Z,98595.00
2023-03-16T04:31:45.978Z,98593.47
2023-03-16T04:34:14.093Z,98596.06
2023-03-16T04:36:41.896Z,98608.03
2023-03-16T04:39:10.563Z,98606.41
2023-03-16T04:41:37.859Z,98609.19
2023-03-16T04:44:13.739Z,98600.00
2023-03-16T04:46:40.770Z,98594.84
2023-03-16T04:49:10.972Z,98604.25
2023-03-16T04:51:40.709Z,98616.06
2023-03-16T04:54:11.276Z,98617.88
2023-03-16T04:56:41.706Z,98601.19
2023-03-16T04:59:37.352Z,98600.28
2023-03-16T05:02:17.741Z,98616.22
2023-03-16T05:04:44.462Z,98621.31
2023-03-16T05:07:12.432Z,98623.16
2023-03-16T05:09:42.964Z,98616.50
2023-03-16T05:12:10.557Z,98613.91
2023-03-16T05:14:38.180Z,98617.31
2023-03-16T05:17:14.781Z,98623.31
2023-03-16T05:19:43.038Z,98619.19
2023-03-16T05:22:10.498Z,98622.50
2023-03-16T05:24:39.749Z,98622.44
2023-03-16T05:27:06.611Z,98620.66
2023-03-16T05:29:34.372Z,98618.28
2023-03-16T05:32:01.230Z,98610.88
2023-03-16T05:34:29.415Z,98630.41
2023-03-16T05:36:56.031Z,98624.66
2023-03-16T05:39:23.627Z,98632.38
2023-03-16T05:41:50.588Z,98636.63
2023-03-16T05:44:31.166Z,98634.84
2023-03-16T05:47:18.140Z,98648.41
2023-03-16T05:49:50.239Z,98645.06
2023-03-16T05:52:30.190Z,98646.03
2023-03-16T05:54:58.938Z,98654.59
2023-03-16T05:57:25.905Z,98658.00
2023-03-16T05:59:52.912Z,98664.78
2023-03-16T06:02:20.822Z,98662.38
2023-03-16T06:04:47.524Z,98664.13
2023-03-16T06:07:14.300Z,98669.22
2023-03-16T06:09:41.002Z,98668.44
2023-03-16T06:12:13.604Z,98672.72
2023-03-16T06:14:41.287Z,98679.44
2023-03-16T06:17:08.148Z,98676.03
2023-03-16T06:19:35.263Z,98690.16
2023-03-16T06:22:02.580Z,98685.94
2023-03-16T06:24:30.426Z,98686.84
2023-03-16T06:26:57.049Z,98687.78
2023-03-16T06:29:29.902Z,98700.50
2023-03-16T06:31:58.072Z,98691.19
2023-03-16T06:34:25.193Z,98698.50
2023-03-16T06:36:51.941Z,98707.66
2023-03-16T06:39:19.276Z,98704.88
2023-03-16T06:41:49.602Z,98689.03
2023-03-16T06:44:17.438Z,98714.00
2023-03-16T06:46:56.510Z,98705.28
2023-03-16T06:49:23.476Z,98711.53
2023-03-16T06:51:50.766Z,98717.94
2023-03-16T06:54:19.083Z,98710.25
2023-03-16T06:56:46.454Z,98714.28
2023-03-16T06:59:13.358Z,98720.91
2023-03-16T07:01:40.072Z,98728.47
2023-03-16T07:04:06.982Z,98721.66
2023-03-16T07:06:34.611Z,98722.13
2023-03-16T07:09:02.118Z,98729.50
2023-03-16T07:11:30.748Z,98730.91
2023-03-16T07:13:58.653Z,98736.53
2023-03-16T07:16:27.107Z,98739.88
2023-03-16T07:18:56.291Z,98733.88
2023-03-16T07:21:23.040Z,98736.31
2023-03-16T07:23:50.479Z,98749.38
2023-03-16T07:26:22.050Z,98751.56
2023-03-16T07:28:58.003Z,98745.53
2023-03-16T07:31:25.712Z,98752.97
2023-03-16T07:33:54.516Z,98746.03
2023-03-16T07:36:31.392Z,98756.88
2023-03-16T07:39:01.324Z,98753.50
2023-03-16T07:41:28.085Z,98763.44
2023-03-16T07:44:07.627Z,98759.25
2023-03-16T07:46:34.410Z,98761.66
2023-03-16T07:49:01.418Z,98763.97
2023-03-16T07:51:28.211Z,98756.31
2023-03-16T07:53:55.407Z,98761.31
2023-03-16T07:56:31.610Z,98767.09
2023-03-16T07:59:06.927Z,98766.94
2023-03-16T08:01:34.413Z,98781.88
2023-03-16T08:04:02.000Z,98773.72
2023-03-16T08:06:29.546Z,98771.16
2023-03-16T08:08:56.281Z,98773.66
2023-03-16T08:11:30.022Z,98791.47
2023-03-16T08:14:01.033Z,98797.25
2023-03-16T08:16:45.236Z,98802.97
2023-03-16T08:19:11.952Z,98802.88
2023-03-16T08:21:48.837Z,98811.84
2023-03-16T08:24:20.419Z,98813.41
2023-03-16T08:26:47.560Z,98806.84
2023-03-16T08:29:14.718Z,98801.66
2023-03-16T08:31:43.465Z,98803.16
2023-03-16T08:34:19.966Z,98811.81
2023-03-16T08:36:47.523Z,98809.28
2023-03-16T08:39:15.753Z,98800.06
2023-03-16T08:41:47.116Z,98800.50
2023-03-16T08:44:37.055Z,98803.53
2023-03-16T08:47:05.165Z,98804.03
2023-03-16T08:49:34.924Z,98800.41
2023-03-16T08:52:13.013Z,98799.03
2023-03-16T08:54:47.155Z,98803.00
2023-03-16T08:57:19.599Z,98788.13
2023-03-16T08:59:46.218Z,98805.69
2023-03-16T09:02:14.662Z,98796.22
2023-03-16T09:04:41.570Z,98798.19
2023-03-16T09:07:10.005Z,98797.28
2023-03-16T09:09:37.331Z,98807.59
2023-03-16T09:12:06.090Z,98801.69
2023-03-16T09:14:33.273Z,98804.34
2023-03-16T09:17:00.020Z,98800.59
2023-03-16T09:19:28.010Z,98793.53
2023-03-16T09:21:57.343Z,98792.44
2023-03-16T09:24:24.546Z,98799.59
2023-03-16T09:26:51.766Z,98792.38
2023-03-16T09:29:19.043Z,98789.69
2023-03-16T09:31:46.346Z,98796.50
2023-03-16T09:34:13.629Z,98792.84
2023-03-16T09:36:41.567Z,98797.94
2023-03-16T09:39:08.798Z,98794.28
2023-03-16T09:41:38.222Z,98794.72
2023-03-16T09:44:17.087Z,98805.03
2023-03-16T09:46:46.249Z,98802.31
2023-03-16T09:49:17.584Z,98792.81
2023-03-16T09:51:48.860Z,98795.66
2023-03-16T09:54:39.161Z,98790.66
2023-03-16T09:57:30.729Z,98793.69
2023-03-16T10:00:11.613Z,98788.50
2023-03-16T10:02:45.642Z,98794.72
2023-03-16T10:05:16.093Z,98781.06
2023-03-16T10:08:12.783Z,98777.03
2023-03-16T10:10:39.942Z,98773.78
2023-03-16T10:13:18.052Z,98777.78
2023-03-16T10:15:46.894Z,98792.22
2023-03-16T10:18:22.245Z,98787.38
2023-03-16T10:20:51.183Z,98788.59
2023-03-16T10:23:23.001Z,98782.75
2023-03-16T10:25:56.863Z,98783.00
2023-03-16T10:28:28.706Z,98769.88
2023-03-16T10:30:59.064Z,98773.59
2023-03-16T10:33:33.645Z,98778.09
2023-03-16T10:36:09.374Z,98777.31
2023-03-16T10:38:49.254Z,98757.63
2023-03-16T10:41:19.173Z,98771.13
2023-03-16T10:43:52.064Z,98764.53
2023-03-16T10:46:19.189Z,98771.91
2023-03-16T10:48:54.837Z,98775.88
2023-03-16T10:51:26.334Z,98768.09
2023-03-16T10:53:54.546Z,98770.75
2023-03-16T10:56:25.324Z,98766.59
2023-03-16T10:58:52.290Z,98770.00
2023-03-16T11:01:24.348Z,98768.56
2023-03-16T11:03:53.193Z,98765.50
2023-03-16T11:06:24.807Z,98767.25
2023-03-16T11:08:53.922Z,98764.22
2023-03-16T11:11:32.587Z,98763.91
2023-03-16T11:14:02.873Z,98759.47
2023-03-16T11:16:38.764Z,98754.91
2023-03-16T11:19:29.197Z,98755.00
2023-03-16T11:22:06.483Z,98758.13
2023-03-16T11:24:37.749Z,98754.94
2023-03-16T11:27:08.957Z,98752.94
2023-03-16T11:29:35.591Z,98743.03
2023-03-16T11:32:12.898Z,98743.47
2023-03-16T11:34:43.389Z,98745.63
2023-03-16T11:37:35.432Z,98750.47
2023-03-16T11:40:22.225Z,98740.31
2023-03-16T11:43:22.215Z,98738.66
2023-03-16T11:46:13.892Z,98745.16
2023-03-16T11:49:03.817Z,98739.84
2023-03-16T11:51:41.159Z,98735.63
2023-03-16T11:54:11.882Z,98739.38
2023-03-16T11:57:04.553Z,98737.00
2023-03-16T11:59:42.366Z,98731.78
2023-03-16T12:02:31.379Z,98721.16
2023-03-16T12:05:27.608Z,98728.06
2023-03-16T12:08:12.470Z,98718.06
2023-03-16T12:10:57.141Z,98711.81
2023-03-16T12:13:30.689Z,98708.66
2023-03-16T12:16:05.708Z,98707.13
2023-03-16T12:18:49.856Z,98705.69
2023-03-16T12:21:27.394Z,98703.84
2023-03-16T12:23:57.516Z,98697.66
2023-03-16T12:26:30.135Z,98692.97
2023-03-16T12:28:58.611Z,98690.44
2023-03-16T12:31:35.156Z,98688.25
2023-03-16T12:34:09.838Z,98685.72
2023-03-16T12:36:45.608Z,98673.59
2023-03-16T12:39:24.895Z,98670.16
2023-03-16T12:42:21.102Z,98670.78
2023-03-16T12:45:02.563Z,98665.75
2023-03-16T12:47:38.500Z,98662.44
2023-03-16T12:50:18.731Z,98666.22
2023-03-16T12:52:48.695Z,98665.53
2023-03-16T12:55:25.169Z,98665.00
2023-03-16T12:58:00.899Z,98655.13
2023-03-16T13:00:42.546Z,98656.56
2023-03-16T13:03:20.139Z,98654.59
2023-03-16T13:05:53.710Z,98652.34
2023-03-16T13:08:21.495Z,98657.84
2023-03-16T13:11:01.356Z,98649.06
2023-03-16T13:13:28.518Z,98663.00
2023-03-16T13:16:22.200Z,98656.38
2023-03-16T13:18:49.314Z,98654.44
2023-03-16T13:21:34.414Z,98651.00
2023-03-16T13:24:23.143Z,98654.81
2023-03-16T13:26:53.585Z,98653.88
2023-03-16T13:29:30.837Z,98653.22
2023-03-16T13:32:08.782Z,98650.19
2023-03-16T13:34:53.716Z,98647.44
2023-03-16T13:37:21.883Z,98642.16
2023-03-16T13:39:57.373Z,98631.00
2023-03-16T13:42:25.358Z,98634.91
2023-03-16T13:44:56.754Z,98628.94
2023-03-16T13:47:26.576Z,98631.47
2023-03-16T13:49:59.045Z,98625.25
2023-03-16T13:52:33.314Z,98628.22
2023-03-16T13:55:03.150Z,98623.22
2023-03-16T13:57:37.602Z,98625.56
2023-03-16T14:00:20.087Z,98623.00
2023-03-16T14:02:51.634Z,98616.72
2023-03-16T14:05:30.245Z,98618.03
2023-03-16T14:07:59.397Z,98613.44
2023-03-16T14:10:33.208Z,98610.41
2023-03-16T14:13:10.036Z,98620.69
2023-03-16T14:15:41.121Z,98616.47
2023-03-16T14:18:17.416Z,98611.38
2023-03-16T14:20:44.849Z,98614.84
2023-03-16T14:23:40.619Z,98611.31
2023-03-16T14:26:13.759Z,98612.59
2023-03-16T14:28:41.731Z,98619.91
2023-03-16T14:31:13.181Z,98616.81
2023-03-16T14:33:42.922Z,98614.63
2023-03-16T14:36:17.666Z,98612.22
2023-03-16T14:38:48.308Z,98620.13
2023-03-16T14:41:20.423Z,98610.56
2023-03-16T14:43:54.364Z,98613.59
2023-03-16T14:46:29.434Z,98622.72
2023-03-16T14:49:06.975Z,98619.53
2023-03-16T14:51:35.892Z,98614.56
2023-03-16T14:54:02.830Z,98617.78
2023-03-16T14:56:35.440Z,98617.88
2023-03-16T14:59:02.225Z,98614.75
2023-03-16T15:01:28.972Z,98604.00
2023-03-16T15:03:55.895Z,98610.50
2023-03-16T15:06:22.916Z,98616.41
2023-03-16T15:08:50.861Z,98609.34
2023-03-16T15:11:21.530Z,98612.72
2023-03-16T15:13:48.740Z,98605.03
2023-03-16T15:16:15.499Z,98605.00
2023-03-16T15:18:43.089Z,98591.59
2023-03-16T15:21:15.658Z,98607.81
2023-03-16T15:23:44.001Z,98612.75
2023-03-16T15:26:13.045Z,98606.16
2023-03-16T15:28:40.149Z,98602.53
2023-03-16T15:31:07.075Z,98608.16
2023-03-16T15:33:33.966Z,98604.00
2023-03-16T15:36:09.659Z,98599.34
2023-03-16T15:38:40.803Z,98596.88
2023-03-16T15:41:11.690Z,98609.81
2023-03-16T15:43:38.561Z,98599.66
2023-03-16T15:46:06.301Z,98606.59
2023-03-16T15:48:33.568Z,98597.34
2023-03-16T15:51:07.630Z,98602.63
2023-03-16T15:53:43.615Z,98600.88
2023-03-16T15:56:13.914Z,98606.19
2023-03-16T15:58:43.417Z,98606.53
2023-03-16T16:01:21.364Z,98607.78
2023-03-16T16:03:48.404Z,98608.91
2023-03-16T16:06:16.504Z,98610.81
2023-03-16T16:08:43.382Z,98604.41
2023-03-16T16:11:19.322Z,98609.56
2023-03-16T16:13:46.885Z,98605.22
2023-03-16T16:16:17.819Z,98610.91
2023-03-16T16:18:46.722Z,98612.25
2023-03-16T16:21:19.152Z,98614.47
2023-03-16T16:23:46.626Z,98612.59
2023-03-16T16:26:22.407Z,98617.84
2023-03-16T16:28:49.373Z,98620.13
2023-03-16T16:31:16.554Z,98619.00
2023-03-16T16:33:43.326Z,98630.97
2023-03-16T16:36:20.328Z,98631.38
2023-03-16T16:38:48.604Z,98633.94
2023-03-16T16:41:26.818Z,98637.47
2023-03-16T16:43:54.224Z,98635.59
2023-03-16T16:46:24.334Z,98639.91
2023-03-16T16:48:54.465Z,98642.75
2023-03-16T16:51:27.735Z,98648.13
2023-03-16T16:53:57.508Z,98649.22
2023-03-16T16:56:33.582Z,98655.59
2023-03-16T16:59:11.213Z,98658.78
2023-03-16T17:01:39.002Z,98657.34
2023-03-16T17:04:13.580Z,98661.84
2023-03-16T17:06:40.309Z,98669.56
2023-03-16T17:09:08.789Z,98663.25
2023-03-16T17:11:37.296Z,98663.44
2023-03-16T17:14:06.368Z,98676.59
2023-03-16T17:16:36.730Z,98673.50
2023-03-16T17:19:04.192Z,98681.53
2023-03-16T17:21:31.406Z,98682.81
2023-03-16T17:24:00.229Z,98680.41
2023-03-16T17:26:34.471Z,98683.94
2023-03-16T17:29:03.988Z,98680.81
2023-03-16T17:31:39.481Z,98688.03
2023-03-16T17:34:16.420Z,98692.38
2023-03-16T17:36:44.159Z,98687.59
2023-03-16T17:39:32.522Z,98696.88
2023-03-16T17:42:01.986Z,98705.72
2023-03-16T17:44:35.559Z,98706.00
2023-03-16T17:47:02.475Z,98705.38
2023-03-16T17:49:30.757Z,98714.38
2023-03-16T17:51:57.723Z,98717.00
2023-03-16T17:54:24.388Z,98721.72
2023-03-16T17:56:53.878Z,98724.53
2023-03-16T17:59:22.355Z,98723.16
2023-03-16T18:01:49.262Z,98726.75
2023-03-16T18:04:25.837Z,98733.81
2023-03-16T18:06:52.967Z,98732.34
2023-03-16T18:09:20.963Z,98738.66
2023-03-16T18:11:51.149Z,98750.31
2023-03-16T18:14:39.769Z,98741.47
2023-03-16T18:17:36.361Z,98743.97
2023-03-16T18:20:05.574Z,98746.31
2023-03-16T18:22:32.268Z,98752.06
2023-03-16T18:25:01.098Z,98748.75
2023-03-16T18:27:27.779Z,98759.22
2023-03-16T18:29:54.737Z,98763.09
2023-03-16T18:32:27.211Z,98764.03
2023-03-16T18:34:54.175Z,98766.09
2023-03-16T18:37:23.681Z,98776.06
2023-03-16T18:39:51.962Z,98781.28
2023-03-16T18:42:24.279Z,98785.59
2023-03-16T18:44:51.619Z,98790.25
2023-03-16T18:47:22.059Z,98783.59
2023-03-16T18:49:51.477Z,98792.81
2023-03-16T18:52:22.124Z,98791.56
2023-03-16T18:54:50.018Z,98794.34
2023-03-16T18:57:21.447Z,98795.78
2023-03-16T18:59:49.061Z,98801.94
2023-03-16T19:02:37.341Z,98802.00
2023-03-16T19:05:07.842Z,98812.88
2023-03-16T19:07:37.721Z,98813.63
2023-03-16T19:10:23.066Z,98820.91
2023-03-16T19:12:50.783Z,98818.81
2023-03-16T19:15:22.355Z,98820.03
2023-03-16T19:17:49.934Z,98829.78
2023-03-16T19:20:19.510Z,98820.66
2023-03-16T19:22:49.009Z,98816.06
2023-03-16T19:25:24.135Z,98816.91
2023-03-16T19:27:51.274Z,98829.44
2023-03-16T19:30:37.056Z,98831.00
2023-03-16T19:33:10.658Z,98839.47
2023-03-16T19:35:51.121Z,98840.22
2023-03-16T19:38:19.304Z,98850.34
2023-03-16T19:40:49.174Z,98837.75
2023-03-16T19:43:18.476Z,98847.84
2023-03-16T19:45:46.816Z,98849.38
2023-03-16T19:48:20.212Z,98856.09
2023-03-16T19:50:49.246Z,98853.00
2023-03-16T19:53:22.441Z,98862.66
2023-03-16T19:55:51.867Z,98864.47
2023-03-16T19:58:21.029Z,98868.72
2023-03-16T20:00:47.981Z,98859.03
2023-03-16T20:03:14.797Z,98861.06
2023-03-16T20:05:41.594Z,98868.78
2023-03-16T20:08:27.328Z,98871.66
2023-03-16T20:11:02.116Z,98872.56
2023-03-16T20:13:31.833Z,98866.59
2023-03-16T20:15:59.322Z,98870.22
2023-03-16T20:18:28.643Z,98877.22
2023-03-16T20:20:55.848Z,98868.16
2023-03-16T20:23:28.489Z,98882.28
2023-03-16T20:26:01.988Z,98881.13
2023-03-16T20:28:36.132Z,98889.97
2023-03-16T20:31:05.135Z,98898.84
2023-03-16T20:33:32.110Z,98898.78
2023-03-16T20:35:58.813Z,98902.25
2023-03-16T20:38:25.674Z,98897.19
2023-03-16T20:40:54.378Z,98901.75
2023-03-16T20:43:26.459Z,98910.59
2023-03-16T20:45:55.839Z,98915.84
2023-03-16T20:48:25.452Z,98922.72
2023-03-16T20:50:54.026Z,98929.84
2023-03-16T20:53:21.561Z,98923.13
2023-03-16T20:55:52.651Z,98927.72
2023-03-16T20:58:25.613Z,98940.34
2023-03-16T21:00:57.647Z,98935.19
2023-03-16T21:03:27.992Z,98942.97
2023-03-16T21:05:59.589Z,98943.19
2023-03-16T21:08:27.168Z,98945.03
2023-03-16T21:10:56.296Z,98947.75
2023-03-16T21:13:32.349Z,98944.34
2023-03-16T21:16:01.893Z,98960.72
2023-03-16T21:18:30.453Z,98962.56
2023-03-16T21:20:58.284Z,98972.81
2023-03-16T21:23:24.933Z,98973.22
2023-03-16T21:25:55.761Z,98974.06
2023-03-16T21:28:25.562Z,98975.72
2023-03-16T21:30:54.929Z,98978.59
2023-03-16T21:33:35.190Z,98976.09
2023-03-16T21:36:04.262Z,98970.09
2023-03-16T21:38:32.017Z,98987.16
2023-03-16T21:40:59.242Z,98982.09
2023-03-16T21:43:26.733Z,98985.47
2023-03-16T21:45:55.164Z,98986.38
2023-03-16T21:48:25.409Z,98989.06
2023-03-16T21:50:53.816Z,98985.78
2023-03-16T21:53:23.450Z,98991.69
2023-03-16T21:55:52.085Z,98989.44
2023-03-16T21:58:19.375Z,98987.94
2023-03-16T22:00:47.377Z,98993.81
2023-03-16T22:03:23.067Z,98992.28
2023-03-16T22:05:51.090Z,98991.63
2023-03-16T22:08:21.467Z,98987.47
2023-03-16T22:10:48.456Z,98988.28
2023-03-16T22:13:15.286Z,98989.97
2023-03-16T22:15:43.631Z,98992.66
2023-03-16T22:18:28.213Z,98990.97
2023-03-16T22:21:00.636Z,98996.22
2023-03-16T22:23:30.870Z,98984.56
2023-03-16T22:25:58.347Z,98995.81
2023-03-16T22:28:26.455Z,98984.09
2023-03-16T22:30:54.598Z,98990.63
2023-03-16T22:33:28.174Z,98994.28
2023-03-16T22:35:58.683Z,98993.03
2023-03-16T22:38:25.463Z,98990.53
2023-03-16T22:40:52.272Z,98987.97
2023-03-16T22:43:27.399Z,98987.34
2023-03-16T22:45:56.514Z,98987.34
2023-03-16T22:48:27.916Z,98998.34
2023-03-16T22:50:58.227Z,98995.03
2023-03-16T22:53:41.386Z,98998.59
2023-03-16T22:56:10.346Z,98997.03
2023-03-16T22:58:41.679Z,98994.44
2023-03-16T23:01:17.167Z,99004.97
2023-03-16T23:03:45.378Z,99002.00
2023-03-16T23:06:18.905Z,99007.00
2023-03-16T23:08:45.888Z,99004.59
2023-03-16T23:11:32.211Z,99002.88
2023-03-16T23:13:59.832Z,99005.25
2023-03-16T23:16:31.300Z,98996.69
2023-03-16T23:18:58.011Z,99004.25
2023-03-16T23:21:26.370Z,98999.44
2023-03-16T23:24:03.091Z,98991.78
2023-03-16T23:26:30.848Z,98989.38
2023-03-16T23:28:57.552Z,98986.09
2023-03-16T23:31:27.183Z,98989.59
2023-03-16T23:33:53.943Z,98991.09
2023-03-16T23:36:23.038Z,98992.03
2023-03-16T23:38:50.615Z,98997.97
2023-03-16T23:41:20.560Z,98993.94
2023-03-16T23:43:48.680Z,98999.06
2023-03-16T23:46:19.612Z,98999.13
2023-03-16T23:48:48.761Z,98992.50
2023-03-16T23:51:25.549Z,99000.72
2023-03-16T23:53:53.172Z,99004.16
2023-03-16T23:56:20.136Z,99006.91
2023-03-16T23:58:46.859Z,99018.28
